Time;durP1;ratioP1;P1;durP2;ratioP2;P2;SDS_P1;SDS_P2;PMS_P1;PMS_P2;Temp;Humidity;BMP_temperature;BMP_pressure;BME280_temperature;BME280_humidity;BME280_pressure;Samples;Min_cycle;Max_cycle;Signal;HPM_P1;HPM_P2
2023/08/27 00:00:14;;;;;;;4.20;3.80;;;;;;;16.40;100.00;100831.66;5004883;28;20057;-88
2023/08/27 00:02:40;;;;;;;4.70;4.10;;;;;;;16.39;100.00;100832.88;5001584;28;20044;-88
2023/08/27 00:05:07;;;;;;;7.72;4.30;;;;;;;16.36;100.00;100824.44;5002862;28;20038;-88
2023/08/27 00:07:34;;;;;;;4.40;3.90;;;;;;;16.27;100.00;100822.09;4996576;28;20034;-88
2023/08/27 00:10:00;;;;;;;6.05;3.92;;;;;;;16.38;100.00;100834.13;5003917;28;20037;-88
2023/08/27 00:12:25;;;;;;;6.40;4.90;;;;;;;16.24;100.00;100832.22;4998295;28;20390;-87
2023/08/27 00:14:51;;;;;;;5.30;4.53;;;;;;;16.29;100.00;100824.50;4982450;28;20046;-87
2023/08/27 00:17:16;;;;;;;7.05;4.80;;;;;;;16.24;100.00;100834.25;4990277;28;20040;-87
2023/08/27 00:19:42;;;;;;;8.20;4.80;;;;;;;16.26;100.00;100834.63;4994745;28;20036;-87
2023/08/27 00:22:07;;;;;;;10.82;4.63;;;;;;;16.13;100.00;100840.00;5001604;28;20116;-87
2023/08/27 00:24:33;;;;;;;6.50;4.63;;;;;;;16.23;100.00;100852.41;5000269;28;20414;-87
2023/08/27 00:26:58;;;;;;;6.40;4.55;;;;;;;16.13;100.00;100847.66;5003719;28;20126;-86
2023/08/27 00:29:23;;;;;;;5.15;4.22;;;;;;;16.13;100.00;100837.19;4996872;28;20034;-87
2023/08/27 00:31:49;;;;;;;4.65;3.97;;;;;;;16.02;100.00;100816.69;5001208;28;20033;-86
2023/08/27 00:34:14;;;;;;;5.90;4.32;;;;;;;16.20;100.00;100844.78;4996827;28;20049;-86
2023/08/27 00:36:40;;;;;;;5.43;4.25;;;;;;;16.10;100.00;100837.19;4997283;28;20113;-86
2023/08/27 00:39:05;;;;;;;7.68;5.05;;;;;;;16.13;100.00;100842.00;4999108;28;20040;-87
2023/08/27 00:41:31;;;;;;;6.13;4.55;;;;;;;15.95;100.00;100822.41;5004928;28;20041;-87
2023/08/27 00:43:56;;;;;;;7.72;5.18;;;;;;;16.05;100.00;100844.09;5007276;28;20131;-87
2023/08/27 00:46:22;;;;;;;4.82;3.92;;;;;;;16.06;100.00;100828.75;5001650;28;20664;-87
2023/08/27 00:48:48;;;;;;;5.95;4.20;;;;;;;16.02;100.00;100823.16;5007099;28;20414;-87
2023/08/27 00:51:13;;;;;;;7.07;4.30;;;;;;;16.08;100.00;100819.88;5007758;28;20467;-87
2023/08/27 00:53:39;;;;;;;6.35;4.90;;;;;;;16.07;100.00;100829.56;5001006;28;20037;-87
2023/08/27 00:56:06;;;;;;;7.38;4.93;;;;;;;16.08;100.00;100828.34;4989153;28;20033;-87
2023/08/27 00:58:31;;;;;;;5.72;4.43;;;;;;;16.08;100.00;100812.19;4998260;28;20037;-87
2023/08/27 01:00:58;;;;;;;9.25;5.30;;;;;;;16.08;100.00;100814.22;4996623;28;20029;-86
2023/08/27 01:03:25;;;;;;;7.68;4.13;;;;;;;16.14;100.00;100812.56;5000720;28;20041;-87
2023/08/27 01:05:53;;;;;;;6.88;4.93;;;;;;;16.00;100.00;100803.00;5013522;28;20030;-87
2023/08/27 01:08:48;;;;;;;4.25;3.85;;;;;;;16.05;100.00;100813.84;5000370;28;20117;-87
2023/08/27 01:11:24;;;;;;;6.15;4.38;;;;;;;16.05;100.00;100808.19;4994726;28;20049;-87
2023/08/27 01:13:56;;;;;;;5.18;4.63;;;;;;;16.09;100.00;100810.19;5007381;28;20129;-87
2023/08/27 01:16:23;;;;;;;5.15;4.13;;;;;;;15.97;100.00;100809.47;5003544;28;20383;-87
2023/08/27 01:18:50;;;;;;;6.68;4.68;;;;;;;15.85;100.00;100798.69;5008343;28;20344;-86
2023/08/27 01:21:27;;;;;;;5.40;4.15;;;;;;;15.92;100.00;100795.81;5009327;28;20030;-87
2023/08/27 01:23:55;;;;;;;5.82;4.75;;;;;;;15.82;100.00;100779.78;5008797;28;20485;-88
2023/08/27 01:26:29;;;;;;;7.40;4.97;;;;;;;15.99;100.00;100786.47;5001597;28;20053;-88
2023/08/27 01:29:05;;;;;;;4.85;3.92;;;;;;;16.01;100.00;100776.38;5004162;28;20033;-89
2023/08/27 01:31:38;;;;;;;7.00;4.43;;;;;;;15.99;100.00;100772.38;5000773;28;20029;-88
2023/08/27 01:34:05;;;;;;;7.20;4.40;;;;;;;15.87;100.00;100776.50;5001795;28;20167;-88
2023/08/27 01:36:34;;;;;;;6.57;4.50;;;;;;;15.90;100.00;100781.31;5002420;28;20112;-88
2023/08/27 01:39:00;;;;;;;6.25;4.97;;;;;;;15.98;100.00;100782.88;5005440;28;20056;-88
2023/08/27 01:41:25;;;;;;;6.93;4.95;;;;;;;15.98;100.00;100777.22;4997486;28;20105;-87
2023/08/27 01:43:51;;;;;;;5.40;4.72;;;;;;;15.80;100.00;100770.94;5001092;28;20504;-88
2023/08/27 01:46:16;;;;;;;7.13;5.05;;;;;;;15.83;100.00;100762.44;4998221;28;20026;-88
2023/08/27 01:48:41;;;;;;;5.75;4.20;;;;;;;15.79;100.00;100761.66;5000394;28;20104;-88
2023/08/27 01:51:07;;;;;;;4.82;4.32;;;;;;;15.76;100.00;100736.28;5001431;28;20048;-88
2023/08/27 01:53:32;;;;;;;6.88;4.63;;;;;;;15.84;100.00;100746.28;5002905;28;20157;-88
2023/08/27 01:55:58;;;;;;;6.10;4.45;;;;;;;15.85;100.00;100739.41;4997608;28;20029;-88
2023/08/27 01:58:23;;;;;;;5.93;4.93;;;;;;;15.78;100.00;100733.84;5002839;28;20477;-87
2023/08/27 02:00:50;;;;;;;6.75;5.05;;;;;;;15.80;100.00;100742.72;5001381;28;20042;-88
2023/08/27 02:03:15;;;;;;;6.03;4.53;;;;;;;15.80;100.00;100737.06;4993472;28;20150;-88
2023/08/27 02:05:41;;;;;;;5.90;4.63;;;;;;;15.87;100.00;100730.53;5000505;28;20179;-87
2023/08/27 02:08:06;;;;;;;8.80;4.30;;;;;;;15.85;100.00;100736.59;4998776;28;20026;-88
2023/08/27 02:10:31;;;;;;;6.43;5.18;;;;;;;15.80;100.00;100739.88;4993421;28;20029;-88
2023/08/27 02:12:57;;;;;;;6.72;5.22;;;;;;;15.76;100.00;100739.91;5006049;28;20030;-88
2023/08/27 02:15:22;;;;;;;6.40;4.43;;;;;;;15.83;100.00;100744.69;5012847;28;20100;-88
2023/08/27 02:17:47;;;;;;;6.72;4.78;;;;;;;15.74;100.00;100741.56;5005173;28;20044;-88
2023/08/27 02:20:13;;;;;;;5.50;4.95;;;;;;;15.77;100.00;100743.53;5006123;28;20450;-89
2023/08/27 02:22:39;;;;;;;6.70;5.10;;;;;;;15.78;100.00;100748.75;5003051;28;20038;-88
2023/08/27 02:25:06;;;;;;;7.18;5.20;;;;;;;15.81;100.00;100745.13;4999830;28;20500;-88
2023/08/27 02:27:31;;;;;;;5.13;4.45;;;;;;;15.74;100.00;100736.69;5001523;28;20026;-88
2023/08/27 02:29:56;;;;;;;6.57;5.13;;;;;;;15.72;100.00;100730.66;4996078;28;20034;-88
2023/08/27 02:32:23;;;;;;;5.43;4.70;;;;;;;15.81;100.00;100738.66;4994026;28;20030;-88
2023/08/27 02:34:49;;;;;;;5.35;4.57;;;;;;;15.84;100.00;100740.66;5002305;28;20120;-88
2023/08/27 02:37:14;;;;;;;7.38;5.28;;;;;;;15.70;100.00;100732.28;4996677;28;20038;-88
2023/08/27 02:39:40;;;;;;;7.78;5.97;;;;;;;15.71;100.00;100745.19;4996022;28;20046;-89
2023/08/27 02:42:06;;;;;;;5.05;4.55;;;;;;;15.78;100.00;100759.25;4999696;28;20382;-89
2023/08/27 02:44:31;;;;;;;5.60;4.85;;;;;;;15.74;100.00;100761.31;4997659;28;20029;-88
2023/08/27 02:46:57;;;;;;;7.50;4.97;;;;;;;15.54;100.00;100730.81;4997978;28;20045;-89
2023/08/27 02:49:22;;;;;;;5.88;4.85;;;;;;;15.64;100.00;100752.50;5004334;28;20033;-88
2023/08/27 02:51:48;;;;;;;6.88;4.15;;;;;;;15.75;100.00;100754.47;5000997;28;20397;-88
2023/08/27 02:54:13;;;;;;;7.65;4.97;;;;;;;15.71;100.00;100750.84;5001117;28;20113;-88
2023/08/27 02:56:39;;;;;;;6.97;5.70;;;;;;;15.75;100.00;100754.47;5007597;28;20080;-88
2023/08/27 02:59:04;;;;;;;6.00;4.28;;;;;;;15.77;100.00;100752.00;4991999;28;20355;-88
2023/08/27 03:01:30;;;;;;;7.15;4.30;;;;;;;15.63;100.00;100750.88;4997159;28;20036;-87
2023/08/27 03:03:55;;;;;;;8.05;5.65;;;;;;;15.67;100.00;100744.41;4994441;28;20405;-86
2023/08/27 03:06:20;;;;;;;6.35;4.93;;;;;;;15.63;100.00;100744.44;5001886;28;20030;-87
2023/08/27 03:08:46;;;;;;;6.88;5.20;;;;;;;15.70;100.00;100755.66;4992568;28;20717;-86
2023/08/27 03:11:11;;;;;;;6.30;4.95;;;;;;;15.71;100.00;100750.84;5002284;28;20525;-87
2023/08/27 03:13:37;;;;;;;7.32;5.20;;;;;;;15.60;100.00;100729.16;4999089;28;20052;-87
2023/08/27 03:16:03;;;;;;;5.70;4.68;;;;;;;15.65;100.00;100745.63;5001779;28;20033;-86
2023/08/27 03:18:29;;;;;;;6.95;5.15;;;;;;;15.60;100.00;100734.78;4995830;28;20034;-87
2023/08/27 03:20:55;;;;;;;5.05;4.40;;;;;;;15.65;100.00;100731.50;5003536;28;20102;-87
2023/08/27 03:23:21;;;;;;;6.78;4.55;;;;;;;15.63;100.00;100722.66;4998983;28;20445;-87
2023/08/27 03:25:49;;;;;;;7.72;4.65;;;;;;;15.70;100.00;100737.94;5009450;28;20026;-86
2023/08/27 03:28:14;;;;;;;7.88;4.47;;;;;;;15.62;100.00;100720.25;4997608;28;20057;-87
2023/08/27 03:30:40;;;;;;;6.68;4.28;;;;;;;15.71;100.00;100723.41;4999399;28;20385;-87
2023/08/27 03:33:05;;;;;;;4.25;3.85;;;;;;;15.78;100.00;100722.56;4995976;28;20026;-88
2023/08/27 03:35:31;;;;;;;6.50;4.38;;;;;;;15.74;100.00;100716.16;4996372;28;20030;-87
2023/08/27 03:37:56;;;;;;;5.82;4.82;;;;;;;15.79;100.00;100713.69;4999928;28;20101;-87
2023/08/27 03:40:21;;;;;;;7.10;4.15;;;;;;;15.75;100.00;100710.09;5002090;28;20037;-87
2023/08/27 03:42:47;;;;;;;5.05;4.28;;;;;;;15.74;100.00;100710.50;4998174;28;20039;-87
2023/08/27 03:45:12;;;;;;;5.53;4.32;;;;;;;15.78;100.00;100722.56;5000917;28;20644;-87
2023/08/27 03:47:38;;;;;;;7.30;5.40;;;;;;;15.72;100.00;100712.94;5000748;28;20113;-87
2023/08/27 03:50:04;;;;;;;8.50;4.65;;;;;;;15.61;100.00;100713.81;4997040;28;20048;-86
2023/08/27 03:52:30;;;;;;;4.68;3.90;;;;;;;15.78;100.00;100714.91;4998342;28;20393;-87
2023/08/27 03:54:55;;;;;;;5.18;3.40;;;;;;;15.75;100.00;100712.91;4999050;28;20034;-86
2023/08/27 03:57:21;;;;;;;5.28;4.18;;;;;;;15.59;100.00;100713.44;4998350;28;20458;-87
2023/08/27 03:59:47;;;;;;;4.60;3.85;;;;;;;15.53;100.00;100705.84;5000508;28;20099;-87
2023/08/27 04:02:12;;;;;;;4.85;4.03;;;;;;;15.58;100.00;100711.00;4994394;28;20109;-88
2023/08/27 04:04:37;;;;;;;4.85;3.55;;;;;;;15.63;100.00;100702.91;5003017;28;20038;-88
2023/08/27 04:07:03;;;;;;;5.90;3.70;;;;;;;15.64;100.00;100707.34;4998440;28;20033;-88
2023/08/27 04:09:28;;;;;;;4.53;3.30;;;;;;;15.65;100.00;100714.59;4996026;28;20045;-88
2023/08/27 04:11:54;;;;;;;4.82;3.60;;;;;;;15.63;100.00;100719.03;4994761;28;20029;-88
2023/08/27 04:14:19;;;;;;;5.32;3.83;;;;;;;15.55;100.00;100694.94;4988458;28;20184;-88
2023/08/27 04:16:44;;;;;;;4.10;3.70;;;;;;;15.52;100.00;100699.41;4995832;28;20041;-88
2023/08/27 04:19:10;;;;;;;4.32;3.50;;;;;;;15.55;100.00;100721.13;5002504;28;20026;-88
2023/08/27 04:21:35;;;;;;;4.57;3.25;;;;;;;15.46;100.00;100720.81;5000375;28;20393;-88
2023/08/27 04:24:00;;;;;;;4.28;3.40;;;;;;;15.51;100.00;100725.19;5002717;28;20042;-88
2023/08/27 04:26:26;;;;;;;5.13;3.92;;;;;;;15.50;100.00;100729.25;5003648;28;20025;-88
2023/08/27 04:28:51;;;;;;;5.18;4.15;;;;;;;15.22;100.00;100731.03;5006578;28;20033;-88
2023/08/27 04:31:19;;;;;;;6.18;4.47;;;;;;;15.32;100.00;100740.66;5002775;28;20030;-88
2023/08/27 04:33:45;;;;;;;4.72;3.40;;;;;;;15.34;100.00;100738.22;5002502;28;20164;-88
2023/08/27 04:36:10;;;;;;;10.23;3.85;;;;;;;15.25;100.00;100744.31;4999415;28;20491;-88
2023/08/27 04:38:36;;;;;;;4.63;3.78;;;;;;;15.32;100.00;100743.47;5004505;28;20038;-89
2023/08/27 04:41:01;;;;;;;7.22;4.50;;;;;;;15.19;100.00;100749.59;5001343;28;20808;-88
2023/08/27 04:43:27;;;;;;;7.78;3.72;;;;;;;15.12;100.00;100735.56;5004669;28;20084;-88
2023/08/27 04:45:53;;;;;;;6.88;3.45;;;;;;;14.89;100.00;100716.38;5003360;28;20076;-89
2023/08/27 04:48:19;;;;;;;6.47;3.80;;;;;;;15.20;100.00;100739.09;5008681;28;20034;-88
2023/08/27 04:50:46;;;;;;;4.38;3.35;;;;;;;15.23;100.00;100729.84;5005796;28;20084;-88
2023/08/27 04:53:11;;;;;;;7.05;3.67;;;;;;;15.35;100.00;100728.56;4999495;28;20025;-89
2023/08/27 04:55:37;;;;;;;4.25;3.00;;;;;;;15.22;100.00;100725.41;4995768;28;20021;-86
2023/08/27 04:58:04;;;;;;;4.85;3.58;;;;;;;15.24;100.00;100726.63;4999280;28;20026;-86
2023/08/27 05:00:30;;;;;;;8.77;4.43;;;;;;;15.09;100.00;100725.09;5004799;28;20034;-87
2023/08/27 05:02:55;;;;;;;9.20;3.85;;;;;;;15.14;100.00;100730.31;4999866;28;20044;-88
2023/08/27 05:05:21;;;;;;;5.60;3.90;;;;;;;14.86;100.00;100730.47;5001474;28;20029;-88
2023/08/27 05:07:46;;;;;;;4.80;3.15;;;;;;;14.85;100.00;100724.03;4997793;28;20029;-87
2023/08/27 05:10:12;;;;;;;5.07;3.58;;;;;;;14.99;100.00;100734.44;4996772;28;20029;-87
2023/08/27 05:12:37;;;;;;;7.40;3.63;;;;;;;15.16;100.00;100724.25;5002378;28;20045;-87
2023/08/27 05:15:03;;;;;;;6.03;4.10;;;;;;;15.02;100.00;100734.41;5004819;28;20053;-88
2023/08/27 05:17:29;;;;;;;9.43;3.45;;;;;;;14.94;100.00;100738.47;4999733;28;20034;-87
2023/08/27 05:19:55;;;;;;;5.50;3.67;;;;;;;15.15;100.00;100729.06;5006452;28;20040;-88
2023/08/27 05:22:20;;;;;;;6.72;3.80;;;;;;;15.10;100.00;100734.38;5019423;28;20041;-88
2023/08/27 05:24:46;;;;;;;6.03;3.97;;;;;;;14.91;100.00;100730.06;4997743;28;20054;-87
2023/08/27 05:27:11;;;;;;;7.82;3.40;;;;;;;15.18;100.00;100742.38;4997899;28;20057;-88
2023/08/27 05:29:36;;;;;;;5.07;3.28;;;;;;;15.23;100.00;100725.00;5003776;28;20033;-88
2023/08/27 05:32:03;;;;;;;3.70;2.60;;;;;;;15.29;100.00;100718.94;4995175;28;20485;-88
2023/08/27 05:34:28;;;;;;;5.68;3.40;;;;;;;15.30;100.00;100726.94;5005370;28;20099;-88
2023/08/27 05:36:53;;;;;;;6.50;3.00;;;;;;;15.11;100.00;100717.03;5003740;28;20058;-87
2023/08/27 05:39:19;;;;;;;4.13;2.80;;;;;;;15.24;100.00;100726.63;4999043;28;20441;-87
2023/08/27 05:41:45;;;;;;;3.85;2.33;;;;;;;15.25;100.00;100714.09;4995892;28;20502;-88
2023/08/27 05:44:11;;;;;;;5.15;2.65;;;;;;;15.38;100.00;100722.06;5008669;28;20144;-88
2023/08/27 05:46:36;;;;;;;5.57;2.72;;;;;;;15.30;100.00;100703.59;5002795;28;20585;-88
2023/08/27 05:49:02;;;;;;;6.20;2.60;;;;;;;15.33;100.00;100717.69;5008363;28;20029;-88
2023/08/27 05:51:27;;;;;;;4.88;3.08;;;;;;;15.43;100.00;100718.78;4999633;28;20033;-86
2023/08/27 05:53:52;;;;;;;4.53;2.53;;;;;;;15.36;100.00;100713.22;5000367;28;20042;-87
2023/08/27 05:56:21;;;;;;;6.10;3.20;;;;;;;15.31;100.00;100705.22;5004196;28;20026;-87
2023/08/27 05:58:46;;;;;;;2.55;1.95;;;;;;;15.12;100.00;100698.91;4998448;28;20026;-86
2023/08/27 06:01:12;;;;;;;4.72;1.85;;;;;;;15.20;100.00;100700.47;4999728;28;20033;-87
2023/08/27 06:03:37;;;;;;;3.03;2.25;;;;;;;15.20;100.00;100705.28;5002530;28;20586;-87
2023/08/27 06:06:03;;;;;;;6.47;2.72;;;;;;;15.29;100.00;100700.00;4999430;28;20025;-87
2023/08/27 06:08:28;;;;;;;5.43;2.55;;;;;;;15.37;100.00;100703.56;4995432;28;20029;-87
2023/08/27 06:10:54;;;;;;;3.00;2.30;;;;;;;15.30;100.00;100683.88;4998813;28;20026;-87
2023/08/27 06:13:20;;;;;;;3.85;2.65;;;;;;;15.30;100.00;100695.13;5002377;28;20057;-87
2023/08/27 06:15:45;;;;;;;3.60;2.40;;;;;;;15.32;100.00;100689.88;4995170;28;20046;-87
2023/08/27 06:18:11;;;;;;;3.25;2.38;;;;;;;15.33;100.00;100685.88;4999155;28;20033;-87
2023/08/27 06:20:36;;;;;;;4.30;2.67;;;;;;;15.48;100.00;100687.34;4996313;28;20474;-87
2023/08/27 06:23:04;;;;;;;4.05;2.72;;;;;;;15.36;100.00;100687.84;4999665;28;20215;-87
2023/08/27 06:25:32;;;;;;;4.07;2.88;;;;;;;15.46;100.00;100695.41;4993865;28;20037;-86
2023/08/27 06:27:58;;;;;;;4.07;1.98;;;;;;;15.38;100.00;100672.09;5002380;28;20033;-86
2023/08/27 06:30:23;;;;;;;4.25;2.50;;;;;;;15.49;100.00;100686.09;4995950;28;20026;-86
2023/08/27 06:32:49;;;;;;;4.30;2.65;;;;;;;15.17;100.00;100678.72;4999887;28;20026;-86
2023/08/27 06:35:14;;;;;;;3.45;2.25;;;;;;;15.22;100.00;100686.75;4998937;28;20557;-86
2023/08/27 06:37:40;;;;;;;5.03;3.22;;;;;;;15.31;100.00;100683.44;4989473;28;20037;-86
2023/08/27 06:40:06;;;;;;;4.05;2.92;;;;;;;15.39;100.00;100685.00;5002815;28;20033;-86
2023/08/27 06:42:32;;;;;;;6.95;2.70;;;;;;;15.45;100.00;100680.53;5000409;28;20124;-86
2023/08/27 06:44:57;;;;;;;3.70;2.67;;;;;;;15.34;100.00;100682.63;5004869;28;20116;-86
2023/08/27 06:47:23;;;;;;;4.55;3.13;;;;;;;15.36;100.00;100690.66;4993750;28;20033;-86
2023/08/27 06:49:49;;;;;;;4.45;1.98;;;;;;;15.22;100.00;100686.75;4997861;28;20036;-86
2023/08/27 06:52:14;;;;;;;5.70;2.90;;;;;;;15.13;100.00;100688.44;5000762;28;20401;-86
2023/08/27 06:54:40;;;;;;;4.85;2.38;;;;;;;15.07;100.00;100685.22;4990175;28;20038;-86
2023/08/27 06:57:05;;;;;;;5.28;2.70;;;;;;;15.19;100.00;100669.84;4991777;28;20108;-86
2023/08/27 06:59:31;;;;;;;4.88;2.70;;;;;;;14.88;100.00;100671.69;4993843;28;20042;-86
2023/08/27 07:01:56;;;;;;;3.25;2.35;;;;;;;15.12;100.00;100665.06;4991942;28;20029;-86
2023/08/27 07:04:22;;;;;;;4.78;2.75;;;;;;;15.04;100.00;100669.16;5000739;28;20096;-86
2023/08/27 07:06:47;;;;;;;3.78;2.15;;;;;;;15.06;100.00;100661.09;4988950;28;20492;-83
2023/08/27 07:09:12;;;;;;;3.40;2.45;;;;;;;15.41;100.00;100662.00;4996885;28;20026;-83
2023/08/27 07:11:38;;;;;;;3.75;3.00;;;;;;;15.44;100.00;100661.97;4998487;28;20665;-83
2023/08/27 07:14:03;;;;;;;6.03;2.47;;;;;;;15.54;100.00;100671.56;4994213;28;20054;-83
2023/08/27 07:16:29;;;;;;;6.72;2.85;;;;;;;15.55;100.00;100675.97;4986554;28;20125;-83
2023/08/27 07:18:55;;;;;;;4.07;3.13;;;;;;;15.65;100.00;100686.38;4999464;28;20444;-83
2023/08/27 07:21:20;;;;;;;7.93;3.10;;;;;;;15.60;100.00;100695.28;5000561;28;20021;-83
2023/08/27 07:23:45;;;;;;;5.65;3.35;;;;;;;15.61;100.00;100691.25;4991779;28;20482;-83
2023/08/27 07:26:11;;;;;;;5.50;3.58;;;;;;;15.49;100.00;100700.22;4996467;28;20034;-83
2023/08/27 07:28:37;;;;;;;4.72;3.30;;;;;;;15.45;100.00;100693.81;4999085;28;20382;-83
2023/08/27 07:31:02;;;;;;;6.18;2.83;;;;;;;15.48;100.00;100704.25;4995004;28;20087;-83
2023/08/27 07:33:28;;;;;;;4.85;2.63;;;;;;;15.62;100.00;100704.16;5002183;28;20029;-83
2023/08/27 07:35:53;;;;;;;5.57;3.53;;;;;;;15.75;100.00;100700.84;4996288;28;20894;-92
2023/08/27 07:38:18;;;;;;;6.75;3.67;;;;;;;16.55;100.00;100707.16;4996761;28;20061;-80
2023/08/27 07:40:45;;;;;;;5.25;3.67;;;;;;;16.09;100.00;100700.88;4992939;28;20040;-81
2023/08/27 07:43:10;;;;;;;6.40;3.28;;;;;;;16.05;100.00;100697.28;4996856;28;20429;-81
2023/08/27 07:45:35;;;;;;;6.20;3.80;;;;;;;15.99;100.00;100708.22;4997989;28;20064;-81
2023/08/27 07:48:01;;;;;;;7.80;4.32;;;;;;;15.83;100.00;100702.34;4997443;28;20057;-81
2023/08/27 07:50:27;;;;;;;5.70;3.90;;;;;;;15.82;100.00;100698.72;4994204;28;20422;-81
2023/08/27 07:52:53;;;;;;;5.68;3.88;;;;;;;15.88;100.00;100692.66;4996375;28;20072;-81
2023/08/27 07:55:19;;;;;;;7.65;4.18;;;;;;;15.93;100.00;100695.78;4993095;28;20550;-80
2023/08/27 07:57:44;;;;;;;7.18;4.30;;;;;;;15.97;100.00;100696.56;5000843;28;20093;-80
2023/08/27 08:00:13;;;;;;;7.40;4.05;;;;;;;15.89;100.00;100695.03;5002179;28;20030;-80
2023/08/27 08:02:39;;;;;;;8.55;4.70;;;;;;;15.89;100.00;100688.59;4998403;28;20032;-80
2023/08/27 08:05:04;;;;;;;8.07;5.18;;;;;;;15.84;100.00;100687.03;4996964;28;20490;-80
2023/08/27 08:07:30;;;;;;;11.85;6.70;;;;;;;15.89;100.00;100694.22;4992095;28;20096;-80
2023/08/27 08:09:56;;;;;;;8.43;6.35;;;;;;;15.92;100.00;100682.13;4999492;28;20113;-80
2023/08/27 08:12:22;;;;;;;8.77;5.22;;;;;;;16.09;100.00;100675.47;5004705;28;20108;-80
2023/08/27 08:14:52;;;;;;;7.25;4.55;;;;;;;16.24;100.00;100682.53;4996581;28;20466;-80
2023/08/27 08:17:17;;;;;;;11.15;6.18;;;;;;;16.09;100.00;100677.50;4999026;28;20026;-80
2023/08/27 08:19:42;;;;;;;8.45;7.03;;;;;;;16.19;100.00;100687.84;5000990;28;20085;-80
2023/08/27 08:22:08;;;;;;;9.68;6.78;;;;;;;16.31;100.00;100672.38;4999626;28;20022;-80
2023/08/27 08:24:33;;;;;;;6.25;4.88;;;;;;;16.57;100.00;100670.81;4985833;28;20562;-80
2023/08/27 08:27:02;;;;;;;11.95;6.82;;;;;;;16.57;100.00;100670.81;4991080;28;20393;-80
2023/08/27 08:29:27;;;;;;;7.43;5.63;;;;;;;17.28;100.00;100668.97;4995191;28;20033;-81
2023/08/27 08:31:53;;;;;;;5.68;3.92;;;;;;;18.82;100.00;100674.50;4997348;28;20037;-80
2023/08/27 08:34:18;;;;;;;9.93;7.32;;;;;;;17.96;100.00;100667.81;4989110;28;20037;-81
2023/08/27 08:36:43;;;;;;;10.93;6.28;;;;;;;17.52;100.00;100672.63;4998912;28;20022;-81
2023/08/27 08:39:09;;;;;;;9.15;6.15;;;;;;;18.32;100.00;100667.09;4999928;28;20092;-81
2023/08/27 08:41:37;;;;;;;9.48;6.55;;;;;;;18.73;100.00;100668.63;5002354;28;20049;-80
2023/08/27 08:44:12;;;;;;;12.23;7.30;;;;;;;18.79;100.00;100669.72;5000861;28;20088;-80
2023/08/27 08:46:39;;;;;;;12.70;6.15;;;;;;;19.47;100.00;100670.13;4998997;28;20058;-80
2023/08/27 08:49:14;;;;;;;10.57;6.05;;;;;;;19.54;100.00;100664.25;5002042;28;20488;-81
2023/08/27 08:51:39;;;;;;;8.35;6.03;;;;;;;19.27;100.00;100673.84;4995366;28;20503;-81
2023/08/27 08:54:14;;;;;;;8.38;5.90;;;;;;;18.42;100.00;100666.03;4998567;28;20112;-82
2023/08/27 08:56:44;;;;;;;7.50;4.65;;;;;;;19.03;100.00;100669.56;4996141;28;20151;-81
2023/08/27 08:59:10;;;;;;;8.15;5.53;;;;;;;19.29;100.00;100685.56;4996987;28;20474;-81
2023/08/27 09:01:36;;;;;;;6.53;4.75;;;;;;;19.50;100.00;100691.91;4996861;28;20088;-81
2023/08/27 09:04:06;;;;;;;7.43;4.72;;;;;;;19.58;100.00;100690.50;5003434;28;20393;-82
2023/08/27 09:06:32;;;;;;;8.20;4.15;;;;;;;19.49;100.00;100690.34;5001715;28;20057;-81
2023/08/27 09:09:00;;;;;;;8.55;5.63;;;;;;;18.08;100.00;100681.28;4997780;28;20108;-81
2023/08/27 09:11:27;;;;;;;6.53;4.22;;;;;;;18.23;100.00;100672.53;5002267;28;20562;-81
2023/08/27 09:13:54;;;;;;;7.45;4.63;;;;;;;18.52;100.00;100674.75;4993905;28;20410;-82
2023/08/27 09:16:20;;;;;;;4.70;4.28;;;;;;;18.14;100.00;100667.44;4999920;28;20032;-81
2023/08/27 09:18:45;;;;;;;5.93;4.10;;;;;;;18.46;100.00;100678.09;4996395;28;20034;-81
2023/08/27 09:21:11;;;;;;;5.45;4.18;;;;;;;18.51;100.00;100673.16;5001659;28;20065;-81
2023/08/27 09:23:39;;;;;;;6.13;5.13;;;;;;;18.25;100.00;100672.88;5001048;28;20041;-81
2023/08/27 09:26:06;;;;;;;7.25;4.30;;;;;;;18.26;100.00;100674.50;5000488;28;20061;-81
2023/08/27 09:28:35;;;;;;;11.93;5.65;;;;;;;18.46;100.00;100678.09;4999842;28;20037;-82
2023/08/27 09:31:04;;;;;;;7.15;4.30;;;;;;;18.85;100.00;100664.34;4985903;28;20433;-81
2023/08/27 09:33:39;;;;;;;6.72;4.55;;;;;;;18.78;100.00;100665.28;5002731;28;20032;-82
2023/08/27 09:36:05;;;;;;;9.55;4.55;;;;;;;18.46;100.00;100663.94;5002832;28;20038;-82
2023/08/27 09:38:30;;;;;;;4.22;3.33;;;;;;;18.48;100.00;100664.28;5007719;28;20702;-82
2023/08/27 09:40:56;;;;;;;7.32;4.45;;;;;;;18.38;100.00;100661.69;5003367;28;20592;-82
2023/08/27 09:43:27;;;;;;;7.72;4.90;;;;;;;18.33;100.00;100663.00;4998416;28;20509;-82
2023/08/27 09:45:52;;;;;;;6.45;4.63;;;;;;;17.91;100.00;100645.63;4999568;28;20037;-82
2023/08/27 09:48:27;;;;;;;5.25;3.92;;;;;;;18.21;100.00;100649.50;5004853;28;20029;-82
2023/08/27 09:51:04;;;;;;;5.18;4.07;;;;;;;17.89;100.00;100645.28;4995662;28;20116;-84
2023/08/27 09:53:29;;;;;;;7.22;4.03;;;;;;;18.39;100.00;100635.75;4996302;28;20041;-83
2023/08/27 09:55:55;;;;;;;5.30;4.30;;;;;;;18.34;100.00;100641.13;5001354;28;20038;-83
2023/08/27 09:58:25;;;;;;;5.75;4.20;;;;;;;18.17;100.00;100648.75;4992625;28;20410;-83
2023/08/27 10:00:59;;;;;;;6.00;4.70;;;;;;;18.27;100.00;100642.88;5006539;28;20121;-83
2023/08/27 10:03:24;;;;;;;4.60;3.45;;;;;;;18.40;100.00;100640.16;5003322;28;20124;-83
2023/08/27 10:05:50;;;;;;;9.20;5.07;;;;;;;18.25;100.00;100641.72;5000178;28;20105;-84
2023/08/27 10:08:16;;;;;;;8.32;3.80;;;;;;;18.48;100.00;100632.31;4989588;28;20026;-83
2023/08/27 10:10:41;;;;;;;3.97;3.45;;;;;;;18.86;100.00;100624.19;4997015;28;20122;-84
2023/08/27 10:13:09;;;;;;;9.05;4.05;;;;;;;18.61;100.00;100626.75;5004896;28;20129;-83
2023/08/27 10:15:36;;;;;;;5.97;4.30;;;;;;;18.64;100.00;100625.91;5001462;28;20050;-83
2023/08/27 10:18:04;;;;;;;9.52;4.72;;;;;;;18.49;100.00;100612.06;4998269;28;20092;-82
2023/08/27 10:20:31;;;;;;;9.68;5.28;;;;;;;18.66;100.00;100612.88;4994770;28;20030;-84
2023/08/27 10:22:57;;;;;;;6.40;4.80;;;;;;;18.53;100.00;100617.66;4992044;28;20401;-84
2023/08/27 10:25:24;;;;;;;6.47;4.22;;;;;;;18.53;100.00;100609.16;5002475;28;20033;-84
2023/08/27 10:27:51;;;;;;;4.43;3.83;;;;;;;18.69;100.00;100611.19;5000267;28;20041;-84
2023/08/27 10:30:18;;;;;;;6.63;3.97;;;;;;;18.83;100.00;100605.22;4998863;28;20053;-83
2023/08/27 10:32:44;;;;;;;9.30;4.10;;;;;;;18.37;100.00;100604.22;5005632;28;20034;-83
2023/08/27 10:35:10;;;;;;;6.22;3.88;;;;;;;18.70;100.00;100607.13;4999098;28;20041;-84
2023/08/27 10:37:39;;;;;;;5.07;4.18;;;;;;;18.86;100.00;100612.03;4995357;28;20089;-83
2023/08/27 10:40:09;;;;;;;5.63;4.18;;;;;;;18.94;100.00;100609.84;4995822;28;20474;-84
2023/08/27 10:42:38;;;;;;;5.82;4.32;;;;;;;19.43;100.00;100621.16;4996059;28;20114;-83
2023/08/27 10:45:17;;;;;;;6.25;3.60;;;;;;;19.72;100.00;100634.63;4997366;28;20099;-84
2023/08/27 10:48:03;;;;;;;8.75;4.55;;;;;;;19.27;100.00;100636.97;5001014;28;20068;-84
2023/08/27 10:50:42;;;;;;;5.20;3.22;;;;;;;19.35;100.00;100640.41;4995872;28;20558;-84
2023/08/27 10:53:07;;;;;;;9.02;3.67;;;;;;;18.44;100.00;100620.25;4996242;28;20026;-83
2023/08/27 10:55:37;;;;;;;5.30;4.30;;;;;;;18.26;100.00;100640.50;4994699;28;20109;-83
2023/08/27 10:58:23;;;;;;;4.72;3.58;;;;;;;18.24;100.00;100645.81;4997455;28;20022;-77
2023/08/27 11:01:13;;;;;;;5.57;4.00;;;;;;;17.93;100.00;100650.88;5000203;28;20398;-77
2023/08/27 11:03:59;;;;;;;5.35;4.43;;;;;;;17.79;100.00;100640.59;4996964;28;20467;-77
2023/08/27 11:06:46;;;;;;;7.55;5.53;;;;;;;17.67;100.00;100645.66;4987997;28;20084;-76
2023/08/27 11:09:24;;;;;;;6.30;5.43;;;;;;;17.72;100.00;100644.34;4995182;28;22799;-80
2023/08/27 11:12:22;;;;;;;7.97;5.93;;;;;;;17.49;100.00;100645.19;5010725;28;20033;-79
2023/08/27 11:14:47;;;;;;;6.80;5.63;;;;;;;17.45;100.00;100650.88;5005054;28;20386;-79